UHSS

Yuzhno-Sakhalinsk Airport

Yuzhno-Sakhalinsk, Russian Federation
TAF UHSS 181700Z 1818/1924 32006G11MPS 9999 BKN030CB OVC100 BECMG 1822/1824 32008MPS
Issued Valid From Valid To
Jan-18 @ 17:00 UTC
(3 hours ago)
Jan-18 @ 18:00 UTC
(2 hours ago)
Jan-20 @ 00:00 UTC
(-1 days ago)
Jan-18 @ 18:00 to Jan-18 @ 22:00
TAF UHSS 181700Z 1818/1924 32006G11MPS 9999 BKN030CB OVC100
Wind Visibility Clouds
320° at 12 knots
 Gusting to 21 knots
10,000+ meters
  • Broken at 3,000' AGL
  • Overcast at 10,000' AGL
Becoming Jan-18 @ 22:00 to Jan-20 @ 00:00
BECMG 1822/1824 32008MPS
Wind Visibility Clouds
320° at 16 knots 10,000+ meters
  • Broken at 3,000' AGL
  • Overcast at 10,000' AGL
TAF UHSS 181700Z 1818/1924 32006G11MPS 9999 BKN030CB OVC100 BECMG 1822/1824 32008MPS
Issued Jan-18 @ 17:00 UTC
(3 hours ago)
Valid From Jan-18 @ 18:00 UTC
(2 hours ago)
Valid To Jan-20 @ 00:00 UTC
(-1 days ago)
Jan-18 @ 18:00 - Jan-18 @ 22:00
Wind Visibility
320° at 12 knots
 Gusting to 21 knots
10,000+ meters
Clouds
  • Broken at 3,000' AGL
  • Overcast at 10,000' AGL
Becoming Jan-18 @ 22:00 - Jan-20 @ 00:00
Wind Visibility
320° at 16 knots 10,000+ meters
Clouds
  • Broken at 3,000' AGL
  • Overcast at 10,000' AGL